sensor_id;sensor_type;location;lat;lon;timestamp;pressure;altitude;pressure_sealevel;temperature;humidity
49949;BME280;35840;45.982;8.890;2023-06-19T00:01:02;98390.72;;;21.82;63.34
49949;BME280;35840;45.982;8.890;2023-06-19T00:03:29;98391.69;;;21.64;63.09
49949;BME280;35840;45.982;8.890;2023-06-19T00:05:56;98396.56;;;21.51;63.71
49949;BME280;35840;45.982;8.890;2023-06-19T00:08:23;98388.53;;;21.44;63.81
49949;BME280;35840;45.982;8.890;2023-06-19T00:10:50;98391.50;;;21.49;63.93
49949;BME280;35840;45.982;8.890;2023-06-19T00:13:17;98384.31;;;21.52;64.23
49949;BME280;35840;45.982;8.890;2023-06-19T00:15:45;98389.88;;;21.57;64.46
49949;BME280;35840;45.982;8.890;2023-06-19T00:18:12;98377.28;;;21.60;64.14
49949;BME280;35840;45.982;8.890;2023-06-19T00:20:39;98386.28;;;21.74;63.91
49949;BME280;35840;45.982;8.890;2023-06-19T00:23:06;98395.78;;;21.75;64.10
49949;BME280;35840;45.982;8.890;2023-06-19T00:25:37;98388.25;;;21.72;64.32
49949;BME280;35840;45.982;8.890;2023-06-19T00:28:04;98390.22;;;21.70;64.16
49949;BME280;35840;45.982;8.890;2023-06-19T00:30:30;98385.97;;;21.69;64.13
49949;BME280;35840;45.982;8.890;2023-06-19T00:32:59;98388.25;;;21.64;64.54
49949;BME280;35840;45.982;8.890;2023-06-19T00:35:29;98396.91;;;21.64;64.13
49949;BME280;35840;45.982;8.890;2023-06-19T00:37:55;98402.97;;;21.57;63.93
49949;BME280;35840;45.982;8.890;2023-06-19T00:40:30;98397.22;;;21.53;63.87
49949;BME280;35840;45.982;8.890;2023-06-19T00:42:58;98400.69;;;21.54;63.59
49949;BME280;35840;45.982;8.890;2023-06-19T00:45:26;98409.63;;;21.51;63.60
49949;BME280;35840;45.982;8.890;2023-06-19T00:47:56;98400.78;;;21.44;63.85
49949;BME280;35840;45.982;8.890;2023-06-19T00:50:24;98412.56;;;21.48;64.26
49949;BME280;35840;45.982;8.890;2023-06-19T00:52:52;98406.81;;;21.36;64.68
49949;BME280;35840;45.982;8.890;2023-06-19T00:55:19;98413.84;;;21.36;64.66
49949;BME280;35840;45.982;8.890;2023-06-19T00:57:48;98419.72;;;21.38;65.26
49949;BME280;35840;45.982;8.890;2023-06-19T01:00:17;98417.78;;;21.40;65.28
49949;BME280;35840;45.982;8.890;2023-06-19T01:02:44;98413.38;;;21.40;65.43
49949;BME280;35840;45.982;8.890;2023-06-19T01:05:11;98423.03;;;21.40;65.21
49949;BME280;35840;45.982;8.890;2023-06-19T01:10:21;98427.69;;;21.11;64.59
49949;BME280;35840;45.982;8.890;2023-06-19T01:13:12;98418.84;;;21.04;64.72
49949;BME280;35840;45.982;8.890;2023-06-19T01:15:41;98413.41;;;20.97;64.64
49949;BME280;35840;45.982;8.890;2023-06-19T01:18:09;98421.63;;;21.03;65.10
49949;BME280;35840;45.982;8.890;2023-06-19T01:20:38;98429.34;;;21.12;64.99
49949;BME280;35840;45.982;8.890;2023-06-19T01:23:08;98423.78;;;21.15;64.49
49949;BME280;35840;45.982;8.890;2023-06-19T01:25:35;98432.09;;;21.11;64.75
49949;BME280;35840;45.982;8.890;2023-06-19T01:28:03;98435.22;;;21.14;64.95
49949;BME280;35840;45.982;8.890;2023-06-19T01:30:33;98429.34;;;21.21;64.63
49949;BME280;35840;45.982;8.890;2023-06-19T01:33:10;98433.59;;;21.22;64.83
49949;BME280;35840;45.982;8.890;2023-06-19T01:35:40;98436.72;;;21.25;65.44
49949;BME280;35840;45.982;8.890;2023-06-19T01:38:09;98437.69;;;21.24;65.01
49949;BME280;35840;45.982;8.890;2023-06-19T01:40:37;98436.22;;;21.22;64.77
49949;BME280;35840;45.982;8.890;2023-06-19T01:43:05;98439.44;;;21.07;65.05
49949;BME280;35840;45.982;8.890;2023-06-19T01:45:33;98440.41;;;21.06;65.69
49949;BME280;35840;45.982;8.890;2023-06-19T01:48:00;98448.41;;;21.05;65.66
49949;BME280;35840;45.982;8.890;2023-06-19T01:50:27;98446.78;;;21.04;65.28
49949;BME280;35840;45.982;8.890;2023-06-19T01:52:54;98441.69;;;21.02;65.93
49949;BME280;35840;45.982;8.890;2023-06-19T01:55:20;98449.25;;;21.13;66.03
49949;BME280;35840;45.982;8.890;2023-06-19T01:57:47;98447.47;;;21.14;65.96
49949;BME280;35840;45.982;8.890;2023-06-19T02:00:14;98446.16;;;21.10;65.66
49949;BME280;35840;45.982;8.890;2023-06-19T02:02:42;98437.63;;;21.08;65.66
49949;BME280;35840;45.982;8.890;2023-06-19T02:05:11;98436.47;;;21.02;65.36
49949;BME280;35840;45.982;8.890;2023-06-19T02:07:38;98427.66;;;21.03;65.55
49949;BME280;35840;45.982;8.890;2023-06-19T02:10:06;98424.72;;;20.98;65.38
49949;BME280;35840;45.982;8.890;2023-06-19T02:12:33;98430.59;;;21.00;65.66
49949;BME280;35840;45.982;8.890;2023-06-19T02:14:59;98433.53;;;20.97;65.60
49949;BME280;35840;45.982;8.890;2023-06-19T02:17:26;98431.06;;;20.95;65.92
49949;BME280;35840;45.982;8.890;2023-06-19T02:19:53;98426.66;;;20.96;65.78
49949;BME280;35840;45.982;8.890;2023-06-19T02:22:20;98422.91;;;20.98;65.89
49949;BME280;35840;45.982;8.890;2023-06-19T02:24:46;98420.75;;;20.86;66.14
49949;BME280;35840;45.982;8.890;2023-06-19T02:27:13;98436.47;;;20.94;65.87
49949;BME280;35840;45.982;8.890;2023-06-19T02:29:43;98425.13;;;20.85;66.39
49949;BME280;35840;45.982;8.890;2023-06-19T02:32:10;98436.41;;;20.86;66.59
49949;BME280;35840;45.982;8.890;2023-06-19T02:34:37;98433.97;;;20.84;66.44
49949;BME280;35840;45.982;8.890;2023-06-19T02:37:05;98437.75;;;20.90;66.23
49949;BME280;35840;45.982;8.890;2023-06-19T02:39:32;98431.03;;;20.87;66.70
49949;BME280;35840;45.982;8.890;2023-06-19T02:41:58;98431.19;;;20.86;66.74
49949;BME280;35840;45.982;8.890;2023-06-19T02:44:27;98440.97;;;20.84;67.12
49949;BME280;35840;45.982;8.890;2023-06-19T02:46:54;98438.34;;;20.84;66.80
49949;BME280;35840;45.982;8.890;2023-06-19T02:49:21;98432.63;;;20.80;67.49
49949;BME280;35840;45.982;8.890;2023-06-19T02:51:48;98426.28;;;20.83;66.75
49949;BME280;35840;45.982;8.890;2023-06-19T02:54:15;98437.53;;;20.83;66.58
49949;BME280;35840;45.982;8.890;2023-06-19T02:56:41;98431.78;;;20.79;66.30
49949;BME280;35840;45.982;8.890;2023-06-19T02:59:08;98436.91;;;20.81;66.55
49949;BME280;35840;45.982;8.890;2023-06-19T03:01:35;98443.09;;;20.80;67.10
49949;BME280;35840;45.982;8.890;2023-06-19T03:04:02;98420.66;;;20.69;67.45
49949;BME280;35840;45.982;8.890;2023-06-19T03:06:29;98445.84;;;20.78;66.83
49949;BME280;35840;45.982;8.890;2023-06-19T03:08:57;98445.50;;;20.73;67.13
49949;BME280;35840;45.982;8.890;2023-06-19T03:11:24;98442.22;;;20.71;67.24
49949;BME280;35840;45.982;8.890;2023-06-19T03:13:52;98448.75;;;20.67;67.75
49949;BME280;35840;45.982;8.890;2023-06-19T03:16:20;98444.75;;;20.63;67.48
49949;BME280;35840;45.982;8.890;2023-06-19T03:18:48;98435.91;;;20.56;67.21
49949;BME280;35840;45.982;8.890;2023-06-19T03:21:21;98436.72;;;20.56;67.63
49949;BME280;35840;45.982;8.890;2023-06-19T03:23:49;98446.53;;;20.62;67.58
49949;BME280;35840;45.982;8.890;2023-06-19T03:26:20;98443.13;;;20.62;67.66
49949;BME280;35840;45.982;8.890;2023-06-19T03:28:47;98437.25;;;20.60;67.74
49949;BME280;35840;45.982;8.890;2023-06-19T03:31:15;98444.91;;;20.61;67.60
49949;BME280;35840;45.982;8.890;2023-06-19T03:33:42;98445.72;;;20.62;67.91
49949;BME280;35840;45.982;8.890;2023-06-19T03:36:09;98448.28;;;20.54;67.71
49949;BME280;35840;45.982;8.890;2023-06-19T03:38:48;98447.94;;;20.49;68.61
49949;BME280;35840;45.982;8.890;2023-06-19T03:41:19;98454.50;;;20.53;68.50
49949;BME280;35840;45.982;8.890;2023-06-19T03:43:46;98453.03;;;20.50;68.12
49949;BME280;35840;45.982;8.890;2023-06-19T03:46:13;98452.19;;;20.50;68.41
49949;BME280;35840;45.982;8.890;2023-06-19T03:48:40;98450.75;;;20.55;68.05
49949;BME280;35840;45.982;8.890;2023-06-19T03:51:07;98443.22;;;20.52;68.12
49949;BME280;35840;45.982;8.890;2023-06-19T03:53:34;98436.81;;;20.46;68.10
49949;BME280;35840;45.982;8.890;2023-06-19T03:56:00;98445.28;;;20.40;68.49
49949;BME280;35840;45.982;8.890;2023-06-19T03:58:27;98449.00;;;20.38;68.72
49949;BME280;35840;45.982;8.890;2023-06-19T04:00:54;98461.25;;;20.37;68.98
49949;BME280;35840;45.982;8.890;2023-06-19T04:03:20;98451.09;;;20.34;68.79
49949;BME280;35840;45.982;8.890;2023-06-19T04:05:47;98453.28;;;20.39;68.84
49949;BME280;35840;45.982;8.890;2023-06-19T04:08:15;98456.38;;;20.42;68.89
49949;BME280;35840;45.982;8.890;2023-06-19T04:10:43;98445.13;;;20.42;69.06
49949;BME280;35840;45.982;8.890;2023-06-19T04:13:10;98450.66;;;20.39;68.97
49949;BME280;35840;45.982;8.890;2023-06-19T04:15:36;98444.59;;;20.38;69.36
49949;BME280;35840;45.982;8.890;2023-06-19T04:18:04;98436.75;;;20.38;69.29
49949;BME280;35840;45.982;8.890;2023-06-19T04:20:31;98444.31;;;20.41;69.33
49949;BME280;35840;45.982;8.890;2023-06-19T04:22:57;98436.19;;;20.44;69.89
49949;BME280;35840;45.982;8.890;2023-06-19T04:25:24;98439.66;;;20.53;69.59
49949;BME280;35840;45.982;8.890;2023-06-19T04:27:51;98439.19;;;20.58;69.47
49949;BME280;35840;45.982;8.890;2023-06-19T04:30:18;98454.03;;;20.57;69.62
49949;BME280;35840;45.982;8.890;2023-06-19T04:32:47;98452.91;;;20.60;69.45
49949;BME280;35840;45.982;8.890;2023-06-19T04:35:14;98451.13;;;20.60;69.51
49949;BME280;35840;45.982;8.890;2023-06-19T04:37:41;98451.91;;;20.61;69.70
49949;BME280;35840;45.982;8.890;2023-06-19T04:40:08;98445.88;;;20.60;69.50
49949;BME280;35840;45.982;8.890;2023-06-19T04:42:35;98440.50;;;20.62;70.42
49949;BME280;35840;45.982;8.890;2023-06-19T04:45:02;98445.41;;;20.65;70.64
49949;BME280;35840;45.982;8.890;2023-06-19T04:47:29;98447.75;;;20.68;69.79
49949;BME280;35840;45.982;8.890;2023-06-19T04:50:09;98443.03;;;20.72;68.86
49949;BME280;35840;45.982;8.890;2023-06-19T04:52:36;98437.09;;;20.61;68.44
49949;BME280;35840;45.982;8.890;2023-06-19T04:55:07;98438.41;;;20.66;68.85
49949;BME280;35840;45.982;8.890;2023-06-19T04:57:36;98435.69;;;20.67;68.69
49949;BME280;35840;45.982;8.890;2023-06-19T05:00:04;98441.91;;;20.74;68.67
49949;BME280;35840;45.982;8.890;2023-06-19T05:02:36;98444.22;;;20.77;69.28
49949;BME280;35840;45.982;8.890;2023-06-19T05:05:04;98445.53;;;20.81;70.52
49949;BME280;35840;45.982;8.890;2023-06-19T05:07:31;98444.91;;;20.88;69.53
49949;BME280;35840;45.982;8.890;2023-06-19T05:09:58;98435.47;;;20.95;69.59
49949;BME280;35840;45.982;8.890;2023-06-19T05:12:25;98437.09;;;20.96;70.34
49949;BME280;35840;45.982;8.890;2023-06-19T05:14:52;98439.06;;;21.02;70.00
49949;BME280;35840;45.982;8.890;2023-06-19T05:17:18;98440.56;;;21.05;69.46
49949;BME280;35840;45.982;8.890;2023-06-19T05:19:45;98434.88;;;21.09;69.17
49949;BME280;35840;45.982;8.890;2023-06-19T05:22:12;98440.13;;;21.18;68.52
49949;BME280;35840;45.982;8.890;2023-06-19T05:24:39;98442.13;;;21.24;68.12
49949;BME280;35840;45.982;8.890;2023-06-19T05:27:06;98436.03;;;21.23;67.91
49949;BME280;35840;45.982;8.890;2023-06-19T05:29:33;98438.50;;;21.25;68.27
49949;BME280;35840;45.982;8.890;2023-06-19T05:32:00;98429.84;;;21.24;68.11
49949;BME280;35840;45.982;8.890;2023-06-19T05:34:26;98436.06;;;21.31;68.26
49949;BME280;35840;45.982;8.890;2023-06-19T05:36:53;98431.34;;;21.35;66.40
49949;BME280;35840;45.982;8.890;2023-06-19T05:39:20;98430.84;;;21.31;66.39
49949;BME280;35840;45.982;8.890;2023-06-19T05:41:46;98434.63;;;21.37;66.49
49949;BME280;35840;45.982;8.890;2023-06-19T05:44:14;98435.13;;;21.41;66.47
49949;BME280;35840;45.982;8.890;2023-06-19T05:46:45;98427.75;;;21.44;67.07
49949;BME280;35840;45.982;8.890;2023-06-19T05:49:12;98432.22;;;21.52;67.32
49949;BME280;35840;45.982;8.890;2023-06-19T05:51:38;98428.31;;;21.56;66.35
49949;BME280;35840;45.982;8.890;2023-06-19T05:54:05;98420.59;;;21.55;66.42
49949;BME280;35840;45.982;8.890;2023-06-19T05:56:33;98426.34;;;21.58;66.53
49949;BME280;35840;45.982;8.890;2023-06-19T05:59:00;98424.53;;;21.59;66.16
49949;BME280;35840;45.982;8.890;2023-06-19T06:01:28;98417.84;;;21.64;67.61
49949;BME280;35840;45.982;8.890;2023-06-19T06:03:56;98420.28;;;21.66;66.91
49949;BME280;35840;45.982;8.890;2023-06-19T06:06:23;98427.19;;;21.75;67.42
49949;BME280;35840;45.982;8.890;2023-06-19T06:08:50;98434.22;;;21.83;67.50
49949;BME280;35840;45.982;8.890;2023-06-19T06:11:22;98433.72;;;21.79;67.03
49949;BME280;35840;45.982;8.890;2023-06-19T06:13:49;98429.63;;;21.77;67.40
49949;BME280;35840;45.982;8.890;2023-06-19T06:16:16;98441.59;;;21.79;68.00
49949;BME280;35840;45.982;8.890;2023-06-19T06:18:45;98439.47;;;21.75;67.21
49949;BME280;35840;45.982;8.890;2023-06-19T06:21:12;98441.41;;;21.81;67.67
49949;BME280;35840;45.982;8.890;2023-06-19T06:23:42;98434.38;;;21.81;66.18
49949;BME280;35840;45.982;8.890;2023-06-19T06:26:11;98430.94;;;21.81;65.89
49949;BME280;35840;45.982;8.890;2023-06-19T06:28:37;98425.88;;;21.88;67.31
49949;BME280;35840;45.982;8.890;2023-06-19T06:31:06;98420.31;;;21.91;64.17
49949;BME280;35840;45.982;8.890;2023-06-19T06:33:33;98421.78;;;21.93;64.00
49949;BME280;35840;45.982;8.890;2023-06-19T06:36:01;98410.66;;;21.91;64.04
49949;BME280;35840;45.982;8.890;2023-06-19T06:38:27;98421.78;;;22.01;66.76
49949;BME280;35840;45.982;8.890;2023-06-19T06:40:54;98412.94;;;22.02;65.84
49949;BME280;35840;45.982;8.890;2023-06-19T06:43:21;98412.78;;;22.04;66.92
49949;BME280;35840;45.982;8.890;2023-06-19T06:45:48;98406.22;;;22.08;68.19
49949;BME280;35840;45.982;8.890;2023-06-19T06:48:15;98401.50;;;22.12;68.10
49949;BME280;35840;45.982;8.890;2023-06-19T06:50:42;98405.59;;;22.14;67.93
49949;BME280;35840;45.982;8.890;2023-06-19T06:53:09;98405.41;;;22.16;65.33
49949;BME280;35840;45.982;8.890;2023-06-19T06:55:36;98401.66;;;22.18;64.92
49949;BME280;35840;45.982;8.890;2023-06-19T06:58:03;98403.78;;;22.15;63.75
49949;BME280;35840;45.982;8.890;2023-06-19T07:00:30;98412.44;;;22.24;64.97
49949;BME280;35840;45.982;8.890;2023-06-19T07:02:56;98402.94;;;22.23;65.21
49949;BME280;35840;45.982;8.890;2023-06-19T07:05:23;98403.44;;;22.26;64.20
49949;BME280;35840;45.982;8.890;2023-06-19T07:07:50;98397.84;;;22.29;64.26
49949;BME280;35840;45.982;8.890;2023-06-19T07:10:17;98398.38;;;22.33;66.11
49949;BME280;35840;45.982;8.890;2023-06-19T07:12:47;98397.22;;;22.35;65.43
49949;BME280;35840;45.982;8.890;2023-06-19T07:15:15;98393.75;;;22.43;67.14
49949;BME280;35840;45.982;8.890;2023-06-19T07:17:45;98399.84;;;22.35;64.46
49949;BME280;35840;45.982;8.890;2023-06-19T07:20:13;98404.91;;;22.37;65.16
49949;BME280;35840;45.982;8.890;2023-06-19T07:22:41;98410.13;;;22.45;67.01
49949;BME280;35840;45.982;8.890;2023-06-19T07:25:10;98407.50;;;22.45;65.38
49949;BME280;35840;45.982;8.890;2023-06-19T07:27:38;98414.69;;;22.51;67.61
49949;BME280;35840;45.982;8.890;2023-06-19T07:30:05;98409.44;;;22.60;67.10
49949;BME280;35840;45.982;8.890;2023-06-19T07:32:32;98407.13;;;22.65;66.11
49949;BME280;35840;45.982;8.890;2023-06-19T07:34:59;98404.84;;;22.62;64.42
49949;BME280;35840;45.982;8.890;2023-06-19T07:37:26;98406.78;;;22.68;66.56
49949;BME280;35840;45.982;8.890;2023-06-19T07:39:53;98401.03;;;22.73;67.18
49949;BME280;35840;45.982;8.890;2023-06-19T07:42:20;98396.56;;;22.81;65.84
49949;BME280;35840;45.982;8.890;2023-06-19T07:44:47;98406.69;;;22.93;66.86
49949;BME280;35840;45.982;8.890;2023-06-19T07:47:15;98412.06;;;22.99;66.10
49949;BME280;35840;45.982;8.890;2023-06-19T07:49:42;98417.16;;;23.01;64.47
49949;BME280;35840;45.982;8.890;2023-06-19T07:52:09;98412.84;;;23.08;65.30
49949;BME280;35840;45.982;8.890;2023-06-19T07:54:36;98409.56;;;23.06;64.97
49949;BME280;35840;45.982;8.890;2023-06-19T07:57:03;98414.63;;;23.08;66.45
49949;BME280;35840;45.982;8.890;2023-06-19T07:59:30;98415.16;;;23.11;65.40
49949;BME280;35840;45.982;8.890;2023-06-19T08:01:56;98414.81;;;23.14;65.42
49949;BME280;35840;45.982;8.890;2023-06-19T08:04:23;98422.44;;;23.24;63.16
49949;BME280;35840;45.982;8.890;2023-06-19T08:06:50;98418.53;;;23.20;63.65
49949;BME280;35840;45.982;8.890;2023-06-19T08:09:18;98418.53;;;23.20;66.20
49949;BME280;35840;45.982;8.890;2023-06-19T08:11:45;98413.44;;;23.27;63.36
49949;BME280;35840;45.982;8.890;2023-06-19T08:14:12;98409.28;;;23.32;63.21
49949;BME280;35840;45.982;8.890;2023-06-19T08:16:38;98409.44;;;23.39;64.64
49949;BME280;35840;45.982;8.890;2023-06-19T08:19:05;98405.44;;;23.43;65.53
49949;BME280;35840;45.982;8.890;2023-06-19T08:21:32;98411.66;;;23.50;63.86
49949;BME280;35840;45.982;8.890;2023-06-19T08:23:59;98408.50;;;23.55;64.07
49949;BME280;35840;45.982;8.890;2023-06-19T08:26:25;98408.63;;;23.62;62.98
49949;BME280;35840;45.982;8.890;2023-06-19T08:28:52;98413.16;;;23.68;63.35
49949;BME280;35840;45.982;8.890;2023-06-19T08:31:19;98414.25;;;23.73;62.53
49949;BME280;35840;45.982;8.890;2023-06-19T08:33:48;98413.38;;;23.81;64.27
49949;BME280;35840;45.982;8.890;2023-06-19T08:36:18;98400.84;;;23.92;63.91
49949;BME280;35840;45.982;8.890;2023-06-19T08:38:45;98403.75;;;23.97;63.43
49949;BME280;35840;45.982;8.890;2023-06-19T08:41:13;98403.75;;;23.97;63.52
49949;BME280;35840;45.982;8.890;2023-06-19T08:43:40;98406.00;;;24.00;63.58
49949;BME280;35840;45.982;8.890;2023-06-19T08:46:13;98407.66;;;24.01;63.81
49949;BME280;35840;45.982;8.890;2023-06-19T08:48:41;98410.47;;;23.99;63.10
49949;BME280;35840;45.982;8.890;2023-06-19T08:51:09;98392.69;;;24.01;63.60
49949;BME280;35840;45.982;8.890;2023-06-19T08:53:44;98404.59;;;24.12;63.58
49949;BME280;35840;45.982;8.890;2023-06-19T08:56:11;98401.97;;;24.12;65.70
49949;BME280;35840;45.982;8.890;2023-06-19T08:58:38;98390.59;;;24.20;64.62
49949;BME280;35840;45.982;8.890;2023-06-19T09:01:05;98405.97;;;24.23;61.92
49949;BME280;35840;45.982;8.890;2023-06-19T09:03:32;98398.81;;;24.32;62.10
49949;BME280;35840;45.982;8.890;2023-06-19T09:06:08;98404.16;;;24.23;58.82
49949;BME280;35840;45.982;8.890;2023-06-19T09:08:36;98397.00;;;24.17;60.06
49949;BME280;35840;45.982;8.890;2023-06-19T09:11:04;98398.97;;;24.15;58.49
49949;BME280;35840;45.982;8.890;2023-06-19T09:13:34;98396.34;;;24.15;58.82
49949;BME280;35840;45.982;8.890;2023-06-19T09:16:08;98400.25;;;24.19;58.77
49949;BME280;35840;45.982;8.890;2023-06-19T09:18:45;98398.34;;;24.28;57.41
49949;BME280;35840;45.982;8.890;2023-06-19T09:21:20;98399.63;;;24.32;57.13
49949;BME280;35840;45.982;8.890;2023-06-19T09:23:51;98402.47;;;24.46;59.91
49949;BME280;35840;45.982;8.890;2023-06-19T09:26:25;98402.28;;;24.47;58.75
49949;BME280;35840;45.982;8.890;2023-06-19T09:28:52;98397.94;;;24.54;58.12
49949;BME280;35840;45.982;8.890;2023-06-19T09:31:19;98398.13;;;24.68;60.64
49949;BME280;35840;45.982;8.890;2023-06-19T09:33:46;98392.06;;;24.82;56.82
49949;BME280;35840;45.982;8.890;2023-06-19T09:36:13;98393.47;;;24.85;60.46
49949;BME280;35840;45.982;8.890;2023-06-19T09:38:40;98398.16;;;25.04;62.20
49949;BME280;35840;45.982;8.890;2023-06-19T09:41:11;98396.00;;;25.08;61.67
49949;BME280;35840;45.982;8.890;2023-06-19T09:43:41;98394.72;;;25.04;56.76
49949;BME280;35840;45.982;8.890;2023-06-19T09:46:10;98391.44;;;25.02;58.26
49949;BME280;35840;45.982;8.890;2023-06-19T09:48:45;98402.31;;;25.14;59.43
49949;BME280;35840;45.982;8.890;2023-06-19T09:51:27;98407.03;;;25.18;60.90
49949;BME280;35840;45.982;8.890;2023-06-19T09:53:58;98407.22;;;25.17;58.11
49949;BME280;35840;45.982;8.890;2023-06-19T09:56:27;98402.38;;;25.20;56.03
49949;BME280;35840;45.982;8.890;2023-06-19T09:58:57;98399.75;;;25.20;55.13
49949;BME280;35840;45.982;8.890;2023-06-19T10:01:29;98397.19;;;25.27;53.63
49949;BME280;35840;45.982;8.890;2023-06-19T10:04:07;98395.56;;;25.26;52.79
49949;BME280;35840;45.982;8.890;2023-06-19T10:06:44;98396.47;;;25.33;56.93
49949;BME280;35840;45.982;8.890;2023-06-19T10:09:11;98394.28;;;25.37;54.37
49949;BME280;35840;45.982;8.890;2023-06-19T10:11:51;98383.50;;;25.32;53.39
49949;BME280;35840;45.982;8.890;2023-06-19T10:14:22;98392.47;;;25.37;53.87
49949;BME280;35840;45.982;8.890;2023-06-19T10:16:49;98390.28;;;25.63;54.79
49949;BME280;35840;45.982;8.890;2023-06-19T10:19:20;98389.53;;;25.69;56.78
49949;BME280;35840;45.982;8.890;2023-06-19T10:21:50;98382.81;;;25.66;54.87
49949;BME280;35840;45.982;8.890;2023-06-19T10:24:18;98385.16;;;25.83;56.76
49949;BME280;35840;45.982;8.890;2023-06-19T10:27:00;98375.69;;;25.88;55.56
49949;BME280;35840;45.982;8.890;2023-06-19T10:29:38;98380.41;;;25.93;56.97
49949;BME280;35840;45.982;8.890;2023-06-19T10:32:06;98381.91;;;26.02;55.29
49949;BME280;35840;45.982;8.890;2023-06-19T10:34:34;98380.75;;;26.11;55.78
49949;BME280;35840;45.982;8.890;2023-06-19T10:37:01;98375.94;;;26.22;55.33
49949;BME280;35840;45.982;8.890;2023-06-19T10:39:27;98377.53;;;26.16;53.47
49949;BME280;35840;45.982;8.890;2023-06-19T10:41:54;98371.13;;;26.25;53.78
49949;BME280;35840;45.982;8.890;2023-06-19T10:44:23;98378.19;;;26.25;55.80
49949;BME280;35840;45.982;8.890;2023-06-19T10:46:50;98377.19;;;26.26;53.47
49949;BME280;35840;45.982;8.890;2023-06-19T10:49:17;98374.13;;;26.22;56.18
49949;BME280;35840;45.982;8.890;2023-06-19T10:51:44;98378.41;;;26.23;56.56
49949;BME280;35840;45.982;8.890;2023-06-19T10:54:11;98375.41;;;26.33;54.65
49949;BME280;35840;45.982;8.890;2023-06-19T10:56:37;98373.44;;;26.42;55.33
49949;BME280;35840;45.982;8.890;2023-06-19T10:59:06;98350.13;;;26.45;56.38
49949;BME280;35840;45.982;8.890;2023-06-19T11:01:36;98367.69;;;26.67;55.46
49949;BME280;35840;45.982;8.890;2023-06-19T11:04:08;98370.97;;;26.69;54.75
49949;BME280;35840;45.982;8.890;2023-06-19T11:06:36;98366.25;;;26.64;53.91
49949;BME280;35840;45.982;8.890;2023-06-19T11:09:05;98364.00;;;26.68;52.91
49949;BME280;35840;45.982;8.890;2023-06-19T11:11:46;98360.78;;;26.66;53.77
49949;BME280;35840;45.982;8.890;2023-06-19T11:14:15;98367.03;;;26.64;52.81
49949;BME280;35840;45.982;8.890;2023-06-19T11:16:44;98358.75;;;26.68;54.19
49949;BME280;35840;45.982;8.890;2023-06-19T11:19:17;98362.41;;;26.67;53.29
49949;BME280;35840;45.982;8.890;2023-06-19T11:21:47;98362.47;;;26.80;54.54
49949;BME280;35840;45.982;8.890;2023-06-19T11:24:15;98359.66;;;26.88;54.00
49949;BME280;35840;45.982;8.890;2023-06-19T11:26:45;98357.63;;;26.90;51.69
49949;BME280;35840;45.982;8.890;2023-06-19T11:29:23;98353.38;;;26.89;52.70
49949;BME280;35840;45.982;8.890;2023-06-19T11:32:03;98345.88;;;26.93;51.84
49949;BME280;35840;45.982;8.890;2023-06-19T11:34:33;98350.16;;;27.01;53.76
49949;BME280;35840;45.982;8.890;2023-06-19T11:37:00;98346.53;;;27.08;54.13
49949;BME280;35840;45.982;8.890;2023-06-19T11:39:27;98344.50;;;27.04;51.70
49949;BME280;35840;45.982;8.890;2023-06-19T11:41:58;98348.34;;;27.14;52.92
49949;BME280;35840;45.982;8.890;2023-06-19T11:44:25;98344.09;;;27.20;51.34
49949;BME280;35840;45.982;8.890;2023-06-19T11:46:56;98341.66;;;27.19;50.62
49949;BME280;35840;45.982;8.890;2023-06-19T11:49:25;98337.78;;;27.14;50.59
49949;BME280;35840;45.982;8.890;2023-06-19T11:51:52;98344.31;;;27.25;51.54
49949;BME280;35840;45.982;8.890;2023-06-19T11:54:19;98344.75;;;27.36;50.41
49949;BME280;35840;45.982;8.890;2023-06-19T11:56:47;98336.41;;;27.32;51.62
49949;BME280;35840;45.982;8.890;2023-06-19T11:59:14;98340.66;;;27.33;49.74
49949;BME280;35840;45.982;8.890;2023-06-19T12:01:41;98337.88;;;27.41;52.53
49949;BME280;35840;45.982;8.890;2023-06-19T12:04:08;98341.69;;;27.32;50.26
49949;BME280;35840;45.982;8.890;2023-06-19T12:06:35;98338.06;;;27.40;50.08
49949;BME280;35840;45.982;8.890;2023-06-19T12:09:03;98342.13;;;27.36;51.07
49949;BME280;35840;45.982;8.890;2023-06-19T12:11:33;98334.38;;;27.34;50.39
49949;BME280;35840;45.982;8.890;2023-06-19T12:13:59;98325.44;;;27.28;50.27
49949;BME280;35840;45.982;8.890;2023-06-19T12:16:26;98335.59;;;27.31;50.30
49949;BME280;35840;45.982;8.890;2023-06-19T12:18:55;98334.38;;;27.34;50.66
49949;BME280;35840;45.982;8.890;2023-06-19T12:21:22;98333.19;;;27.37;49.94
49949;BME280;35840;45.982;8.890;2023-06-19T12:24:03;98333.78;;;27.39;50.04
49949;BME280;35840;45.982;8.890;2023-06-19T12:26:30;98327.31;;;27.35;51.04
49949;BME280;35840;45.982;8.890;2023-06-19T12:28:57;98318.16;;;27.37;51.27
49949;BME280;35840;45.982;8.890;2023-06-19T12:31:24;98321.03;;;27.49;51.76
49949;BME280;35840;45.982;8.890;2023-06-19T12:33:51;98305.34;;;27.54;51.80
49949;BME280;35840;45.982;8.890;2023-06-19T12:36:18;98303.34;;;27.56;53.19
49949;BME280;35840;45.982;8.890;2023-06-19T12:38:45;98298.84;;;27.50;51.73
49949;BME280;35840;45.982;8.890;2023-06-19T12:41:14;98308.00;;;27.54;52.26
49949;BME280;35840;45.982;8.890;2023-06-19T12:43:41;98302.50;;;27.56;50.65
49949;BME280;35840;45.982;8.890;2023-06-19T12:46:08;98303.75;;;27.53;51.72
49949;BME280;35840;45.982;8.890;2023-06-19T12:48:35;98303.97;;;27.52;52.71
49949;BME280;35840;45.982;8.890;2023-06-19T12:51:01;98305.56;;;27.53;53.26
49949;BME280;35840;45.982;8.890;2023-06-19T12:53:28;98301.13;;;27.46;54.27
49949;BME280;35840;45.982;8.890;2023-06-19T12:55:57;98305.97;;;27.56;52.47
49949;BME280;35840;45.982;8.890;2023-06-19T12:58:29;98300.09;;;27.61;52.92
49949;BME280;35840;45.982;8.890;2023-06-19T13:00:56;98300.88;;;27.61;53.34
49949;BME280;35840;45.982;8.890;2023-06-19T13:03:23;98303.53;;;27.61;51.63
49949;BME280;35840;45.982;8.890;2023-06-19T13:05:49;98300.06;;;27.54;52.72
49949;BME280;35840;45.982;8.890;2023-06-19T13:08:16;98296.22;;;27.57;53.14